sensor_id;sensor_type;location;lat;lon;timestamp;pressure;altitude;pressure_sealevel;temperature;humidity
84026;BME280;74110;45.660;25.582;2024-01-16T00:01:31;93591.22;;;2.05;75.64
84026;BME280;74110;45.660;25.582;2024-01-16T00:04:00;93588.02;;;1.89;75.83
84026;BME280;74110;45.660;25.582;2024-01-16T00:06:29;93592.77;;;1.78;75.89
84026;BME280;74110;45.660;25.582;2024-01-16T00:09:00;93606.28;;;1.75;75.88
84026;BME280;74110;45.660;25.582;2024-01-16T00:11:31;93612.35;;;1.58;77.23
84026;BME280;74110;45.660;25.582;2024-01-16T00:14:00;93614.23;;;1.54;77.55
84026;BME280;74110;45.660;25.582;2024-01-16T00:16:30;93611.86;;;1.55;78.03
84026;BME280;74110;45.660;25.582;2024-01-16T00:18:59;93613.14;;;1.44;78.59
84026;BME280;74110;45.660;25.582;2024-01-16T00:21:28;93612.48;;;1.43;78.36
84026;BME280;74110;45.660;25.582;2024-01-16T00:23:58;93615.63;;;1.42;78.46
84026;BME280;74110;45.660;25.582;2024-01-16T00:26:29;93615.70;;;1.49;78.38
84026;BME280;74110;45.660;25.582;2024-01-16T00:28:58;93621.00;;;1.58;77.98
84026;BME280;74110;45.660;25.582;2024-01-16T00:31:28;93636.14;;;1.62;78.19
84026;BME280;74110;45.660;25.582;2024-01-16T00:33:57;93638.46;;;1.50;78.76
84026;BME280;74110;45.660;25.582;2024-01-16T00:36:28;93634.61;;;1.38;79.17
84026;BME280;74110;45.660;25.582;2024-01-16T00:38:58;93643.71;;;1.44;78.16
84026;BME280;74110;45.660;25.582;2024-01-16T00:41:28;93664.63;;;1.37;78.63
84026;BME280;74110;45.660;25.582;2024-01-16T00:43:58;93680.20;;;1.30;78.31
84026;BME280;74110;45.660;25.582;2024-01-16T00:46:27;93681.59;;;1.36;78.45
84026;BME280;74110;45.660;25.582;2024-01-16T00:48:56;93692.48;;;1.37;78.81
84026;BME280;74110;45.660;25.582;2024-01-16T00:51:26;93693.95;;;1.25;78.67
84026;BME280;74110;45.660;25.582;2024-01-16T00:53:56;93694.23;;;1.18;77.44
84026;BME280;74110;45.660;25.582;2024-01-16T00:56:26;93688.64;;;1.18;76.42
84026;BME280;74110;45.660;25.582;2024-01-16T00:59:01;93683.57;;;1.22;75.78
84026;BME280;74110;45.660;25.582;2024-01-16T01:01:31;93683.95;;;1.26;75.56
84026;BME280;74110;45.660;25.582;2024-01-16T01:04:02;93686.52;;;1.25;74.96
84026;BME280;74110;45.660;25.582;2024-01-16T01:06:32;93691.61;;;1.25;74.63
84026;BME280;74110;45.660;25.582;2024-01-16T01:09:02;93689.16;;;1.23;74.96
84026;BME280;74110;45.660;25.582;2024-01-16T01:11:32;93684.65;;;1.18;74.78
84026;BME280;74110;45.660;25.582;2024-01-16T01:14:02;93688.60;;;1.09;75.16
84026;BME280;74110;45.660;25.582;2024-01-16T01:16:33;93683.90;;;1.08;75.52
84026;BME280;74110;45.660;25.582;2024-01-16T01:19:04;93688.27;;;1.05;75.93
84026;BME280;74110;45.660;25.582;2024-01-16T01:21:35;93689.73;;;1.12;75.81
84026;BME280;74110;45.660;25.582;2024-01-16T01:24:04;93698.69;;;1.09;75.69
84026;BME280;74110;45.660;25.582;2024-01-16T01:26:34;93706.87;;;1.09;75.47
84026;BME280;74110;45.660;25.582;2024-01-16T01:29:03;93694.65;;;0.98;75.83
84026;BME280;74110;45.660;25.582;2024-01-16T01:31:33;93677.14;;;0.98;75.48
84026;BME280;74110;45.660;25.582;2024-01-16T01:34:03;93682.92;;;1.06;76.04
84026;BME280;74110;45.660;25.582;2024-01-16T01:36:33;93676.95;;;1.14;76.27
84026;BME280;74110;45.660;25.582;2024-01-16T01:39:03;93667.09;;;1.21;75.52
84026;BME280;74110;45.660;25.582;2024-01-16T01:41:31;93667.66;;;1.28;75.29
84026;BME280;74110;45.660;25.582;2024-01-16T01:44:01;93673.22;;;1.32;74.67
84026;BME280;74110;45.660;25.582;2024-01-16T01:46:33;93672.48;;;1.37;74.54
84026;BME280;74110;45.660;25.582;2024-01-16T01:49:05;93671.10;;;1.39;75.04
84026;BME280;74110;45.660;25.582;2024-01-16T01:51:36;93667.59;;;1.40;74.84
84026;BME280;74110;45.660;25.582;2024-01-16T01:54:05;93678.19;;;1.42;75.02
84026;BME280;74110;45.660;25.582;2024-01-16T01:56:36;93680.92;;;1.47;75.37
84026;BME280;74110;45.660;25.582;2024-01-16T01:59:07;93685.91;;;1.45;75.56
84026;BME280;74110;45.660;25.582;2024-01-16T02:01:38;93689.27;;;1.43;75.67
84026;BME280;74110;45.660;25.582;2024-01-16T02:04:09;93690.48;;;1.38;76.19
84026;BME280;74110;45.660;25.582;2024-01-16T02:06:39;93694.22;;;1.37;75.81
84026;BME280;74110;45.660;25.582;2024-01-16T02:09:10;93696.82;;;1.27;75.94
84026;BME280;74110;45.660;25.582;2024-01-16T02:11:43;93705.76;;;1.29;75.68
84026;BME280;74110;45.660;25.582;2024-01-16T02:14:13;93706.52;;;1.30;75.27
84026;BME280;74110;45.660;25.582;2024-01-16T02:16:43;93705.21;;;1.31;75.35
84026;BME280;74110;45.660;25.582;2024-01-16T02:19:15;93701.52;;;1.41;75.51
84026;BME280;74110;45.660;25.582;2024-01-16T02:21:49;93698.92;;;1.48;75.07
84026;BME280;74110;45.660;25.582;2024-01-16T02:24:21;93704.41;;;1.49;75.36
84026;BME280;74110;45.660;25.582;2024-01-16T02:26:49;93704.46;;;1.49;74.76
84026;BME280;74110;45.660;25.582;2024-01-16T02:29:21;93712.52;;;1.49;74.86
84026;BME280;74110;45.660;25.582;2024-01-16T02:31:50;93711.49;;;1.43;74.99
84026;BME280;74110;45.660;25.582;2024-01-16T02:34:20;93718.35;;;1.31;75.35
84026;BME280;74110;45.660;25.582;2024-01-16T02:36:49;93720.71;;;1.19;75.89
84026;BME280;74110;45.660;25.582;2024-01-16T02:39:19;93714.92;;;1.23;75.57
84026;BME280;74110;45.660;25.582;2024-01-16T02:41:48;93708.34;;;1.26;75.56
84026;BME280;74110;45.660;25.582;2024-01-16T02:44:19;93708.11;;;1.34;75.22
84026;BME280;74110;45.660;25.582;2024-01-16T02:46:49;93710.78;;;1.35;74.29
84026;BME280;74110;45.660;25.582;2024-01-16T02:49:19;93703.15;;;1.27;73.80
84026;BME280;74110;45.660;25.582;2024-01-16T02:51:50;93692.42;;;1.26;73.81
84026;BME280;74110;45.660;25.582;2024-01-16T02:54:22;93698.71;;;1.26;73.54
84026;BME280;74110;45.660;25.582;2024-01-16T02:56:52;93708.30;;;1.19;73.39
84026;BME280;74110;45.660;25.582;2024-01-16T02:59:23;93712.36;;;1.21;74.18
84026;BME280;74110;45.660;25.582;2024-01-16T03:01:53;93719.16;;;1.28;74.44
84026;BME280;74110;45.660;25.582;2024-01-16T03:04:22;93714.22;;;1.31;73.79
84026;BME280;74110;45.660;25.582;2024-01-16T03:06:52;93716.64;;;1.30;73.28
84026;BME280;74110;45.660;25.582;2024-01-16T03:09:22;93722.91;;;1.26;72.85
84026;BME280;74110;45.660;25.582;2024-01-16T03:11:52;93735.90;;;1.23;73.37
84026;BME280;74110;45.660;25.582;2024-01-16T03:14:23;93739.23;;;1.21;73.12
84026;BME280;74110;45.660;25.582;2024-01-16T03:16:53;93743.81;;;1.10;73.61
84026;BME280;74110;45.660;25.582;2024-01-16T03:19:22;93741.27;;;1.02;74.08
84026;BME280;74110;45.660;25.582;2024-01-16T03:21:53;93738.61;;;0.91;74.41
84026;BME280;74110;45.660;25.582;2024-01-16T03:24:23;93737.68;;;0.65;75.67
84026;BME280;74110;45.660;25.582;2024-01-16T03:26:53;93745.95;;;0.62;75.80
84026;BME280;74110;45.660;25.582;2024-01-16T03:29:23;93740.95;;;0.60;75.83
84026;BME280;74110;45.660;25.582;2024-01-16T03:31:52;93743.34;;;0.55;76.38
84026;BME280;74110;45.660;25.582;2024-01-16T03:34:23;93744.81;;;0.51;76.60
84026;BME280;74110;45.660;25.582;2024-01-16T03:36:53;93748.70;;;0.50;76.40
84026;BME280;74110;45.660;25.582;2024-01-16T03:39:22;93764.54;;;0.49;76.32
84026;BME280;74110;45.660;25.582;2024-01-16T03:41:53;93777.95;;;0.44;76.78
84026;BME280;74110;45.660;25.582;2024-01-16T03:44:23;93776.23;;;0.35;77.18
84026;BME280;74110;45.660;25.582;2024-01-16T03:46:54;93774.90;;;0.37;77.27
84026;BME280;74110;45.660;25.582;2024-01-16T03:49:25;93780.06;;;0.30;77.38
84026;BME280;74110;45.660;25.582;2024-01-16T03:51:53;93781.52;;;0.29;77.26
84026;BME280;74110;45.660;25.582;2024-01-16T03:54:23;93790.70;;;0.35;76.75
84026;BME280;74110;45.660;25.582;2024-01-16T03:56:53;93794.34;;;0.37;76.52
84026;BME280;74110;45.660;25.582;2024-01-16T03:59:25;93794.52;;;0.38;75.97
84026;BME280;74110;45.660;25.582;2024-01-16T04:01:54;93800.45;;;0.42;76.06
84026;BME280;74110;45.660;25.582;2024-01-16T04:04:23;93804.63;;;0.42;75.98
84026;BME280;74110;45.660;25.582;2024-01-16T04:06:53;93818.37;;;0.30;76.23
84026;BME280;74110;45.660;25.582;2024-01-16T04:09:21;93827.48;;;0.24;76.92
84026;BME280;74110;45.660;25.582;2024-01-16T04:11:51;93821.24;;;0.28;76.64
84026;BME280;74110;45.660;25.582;2024-01-16T04:14:21;93829.16;;;0.21;76.54
84026;BME280;74110;45.660;25.582;2024-01-16T04:16:52;93835.08;;;0.20;76.81
84026;BME280;74110;45.660;25.582;2024-01-16T04:19:22;93834.45;;;0.16;77.18
84026;BME280;74110;45.660;25.582;2024-01-16T04:21:54;93832.08;;;0.06;77.48
84026;BME280;74110;45.660;25.582;2024-01-16T04:24:23;93826.30;;;-0.00;77.45
84026;BME280;74110;45.660;25.582;2024-01-16T04:26:53;93827.77;;;-0.08;77.47
84026;BME280;74110;45.660;25.582;2024-01-16T04:29:22;93830.48;;;-0.13;77.28
84026;BME280;74110;45.660;25.582;2024-01-16T04:31:52;93834.42;;;-0.16;77.38
84026;BME280;74110;45.660;25.582;2024-01-16T04:34:22;93830.81;;;-0.11;76.96
84026;BME280;74110;45.660;25.582;2024-01-16T04:36:52;93841.95;;;-0.18;77.26
84026;BME280;74110;45.660;25.582;2024-01-16T04:39:20;93846.02;;;-0.34;77.80
84026;BME280;74110;45.660;25.582;2024-01-16T04:41:52;93850.27;;;-0.30;77.40
84026;BME280;74110;45.660;25.582;2024-01-16T04:44:22;93855.06;;;-0.24;76.78
84026;BME280;74110;45.660;25.582;2024-01-16T04:46:51;93855.16;;;-0.18;76.44
84026;BME280;74110;45.660;25.582;2024-01-16T04:49:22;93870.35;;;-0.19;75.86
84026;BME280;74110;45.660;25.582;2024-01-16T04:51:55;93871.97;;;-0.14;75.36
84026;BME280;74110;45.660;25.582;2024-01-16T04:54:24;93874.30;;;-0.02;75.52
84026;BME280;74110;45.660;25.582;2024-01-16T04:56:53;93868.60;;;0.00;74.83
84026;BME280;74110;45.660;25.582;2024-01-16T04:59:22;93861.64;;;0.12;74.91
84026;BME280;74110;45.660;25.582;2024-01-16T05:01:52;93870.41;;;0.10;73.94
84026;BME280;74110;45.660;25.582;2024-01-16T05:04:22;93876.43;;;0.07;73.41
84026;BME280;74110;45.660;25.582;2024-01-16T05:06:52;93878.61;;;0.13;72.81
84026;BME280;74110;45.660;25.582;2024-01-16T05:09:21;93884.09;;;0.15;72.17
84026;BME280;74110;45.660;25.582;2024-01-16T05:11:51;93896.48;;;0.20;72.44
84026;BME280;74110;45.660;25.582;2024-01-16T05:14:21;93897.32;;;0.15;72.17
84026;BME280;74110;45.660;25.582;2024-01-16T05:16:55;93889.23;;;0.12;71.13
84026;BME280;74110;45.660;25.582;2024-01-16T05:19:25;93886.35;;;0.15;70.11
84026;BME280;74110;45.660;25.582;2024-01-16T05:21:54;93900.84;;;0.13;69.86
84026;BME280;74110;45.660;25.582;2024-01-16T05:24:23;93903.08;;;0.11;68.86
84026;BME280;74110;45.660;25.582;2024-01-16T05:26:52;93920.64;;;0.08;69.30
84026;BME280;74110;45.660;25.582;2024-01-16T05:29:23;93917.77;;;0.03;68.64
84026;BME280;74110;45.660;25.582;2024-01-16T05:31:52;93920.17;;;-0.06;69.03
84026;BME280;74110;45.660;25.582;2024-01-16T05:34:22;93927.23;;;-0.07;68.67
84026;BME280;74110;45.660;25.582;2024-01-16T05:36:53;93933.20;;;-0.08;67.83
84026;BME280;74110;45.660;25.582;2024-01-16T05:39:22;93935.21;;;-0.08;67.68
84026;BME280;74110;45.660;25.582;2024-01-16T05:41:52;93932.86;;;-0.15;67.52
84026;BME280;74110;45.660;25.582;2024-01-16T05:44:22;93930.15;;;-0.21;67.46
84026;BME280;74110;45.660;25.582;2024-01-16T05:46:52;93940.13;;;-0.25;66.68
84026;BME280;74110;45.660;25.582;2024-01-16T05:49:23;93949.42;;;-0.30;65.79
84026;BME280;74110;45.660;25.582;2024-01-16T05:51:55;93956.94;;;-0.31;66.08
84026;BME280;74110;45.660;25.582;2024-01-16T05:54:25;93959.15;;;-0.20;65.91
84026;BME280;74110;45.660;25.582;2024-01-16T05:56:55;93973.66;;;-0.23;65.54
84026;BME280;74110;45.660;25.582;2024-01-16T05:59:25;93990.16;;;-0.29;66.44
84026;BME280;74110;45.660;25.582;2024-01-16T06:01:54;94000.43;;;-0.36;66.09
84026;BME280;74110;45.660;25.582;2024-01-16T06:04:25;94013.91;;;-0.36;65.86
84026;BME280;74110;45.660;25.582;2024-01-16T06:06:55;94020.77;;;-0.39;66.06
84026;BME280;74110;45.660;25.582;2024-01-16T06:09:26;94024.55;;;-0.35;66.47
84026;BME280;74110;45.660;25.582;2024-01-16T06:11:56;94016.56;;;-0.30;66.07
84026;BME280;74110;45.660;25.582;2024-01-16T06:14:27;94033.23;;;-0.28;65.73
84026;BME280;74110;45.660;25.582;2024-01-16T06:16:57;94050.76;;;-0.34;65.44
84026;BME280;74110;45.660;25.582;2024-01-16T06:19:35;94056.54;;;-0.27;64.46
84026;BME280;74110;45.660;25.582;2024-01-16T06:22:05;94069.11;;;-0.29;64.32
84026;BME280;74110;45.660;25.582;2024-01-16T06:24:39;94071.30;;;-0.31;63.87
84026;BME280;74110;45.660;25.582;2024-01-16T06:27:09;94074.54;;;-0.30;64.15
84026;BME280;74110;45.660;25.582;2024-01-16T06:29:38;94079.30;;;-0.28;64.09
84026;BME280;74110;45.660;25.582;2024-01-16T06:32:11;94083.77;;;-0.20;64.13
84026;BME280;74110;45.660;25.582;2024-01-16T06:34:44;94085.88;;;-0.26;64.14
84026;BME280;74110;45.660;25.582;2024-01-16T06:37:15;94090.90;;;-0.26;63.92
84026;BME280;74110;45.660;25.582;2024-01-16T06:39:44;94089.09;;;-0.32;63.89
84026;BME280;74110;45.660;25.582;2024-01-16T06:42:14;94094.48;;;-0.35;63.67
84026;BME280;74110;45.660;25.582;2024-01-16T06:44:45;94103.14;;;-0.33;63.00
84026;BME280;74110;45.660;25.582;2024-01-16T06:47:14;94102.89;;;-0.31;63.59
84026;BME280;74110;45.660;25.582;2024-01-16T06:49:49;94113.23;;;-0.30;63.77
84026;BME280;74110;45.660;25.582;2024-01-16T06:52:19;94121.78;;;-0.32;63.78
84026;BME280;74110;45.660;25.582;2024-01-16T06:54:50;94124.82;;;-0.29;64.29
84026;BME280;74110;45.660;25.582;2024-01-16T06:58:04;94131.59;;;-0.36;64.81
84026;BME280;74110;45.660;25.582;2024-01-16T07:00:36;94136.71;;;-0.32;64.57
84026;BME280;74110;45.660;25.582;2024-01-16T07:03:08;94149.36;;;-0.31;64.78
84026;BME280;74110;45.660;25.582;2024-01-16T07:05:39;94157.06;;;-0.38;65.78
84026;BME280;74110;45.660;25.582;2024-01-16T07:08:12;94147.27;;;-0.45;66.88
84026;BME280;74110;45.660;25.582;2024-01-16T07:10:42;94159.31;;;-0.36;67.03
84026;BME280;74110;45.660;25.582;2024-01-16T07:13:22;94161.06;;;-0.30;67.08
84026;BME280;74110;45.660;25.582;2024-01-16T07:16:27;94163.48;;;-0.28;64.69
84026;BME280;74110;45.660;25.582;2024-01-16T07:18:57;94173.86;;;-0.30;63.83
84026;BME280;74110;45.660;25.582;2024-01-16T07:21:45;94173.38;;;-0.34;63.58
84026;BME280;74110;45.660;25.582;2024-01-16T07:24:48;94171.92;;;-0.30;64.69
84026;BME280;74110;45.660;25.582;2024-01-16T07:28:10;94181.42;;;-0.32;63.01
84026;BME280;74110;45.660;25.582;2024-01-16T07:31:47;94196.95;;;-0.29;63.16
84026;BME280;74110;45.660;25.582;2024-01-16T07:35:27;94201.89;;;-0.25;63.73
84026;BME280;74110;45.660;25.582;2024-01-16T07:38:45;94217.02;;;-0.27;63.90
84026;BME280;74110;45.660;25.582;2024-01-16T07:41:50;94214.68;;;-0.33;63.56
84026;BME280;74110;45.660;25.582;2024-01-16T07:44:27;94223.11;;;-0.29;63.00
84026;BME280;74110;45.660;25.582;2024-01-16T07:47:00;94226.97;;;-0.30;62.83
84026;BME280;74110;45.660;25.582;2024-01-16T07:49:39;94226.25;;;-0.36;63.53
84026;BME280;74110;45.660;25.582;2024-01-16T07:52:32;94230.76;;;-0.35;63.10
84026;BME280;74110;45.660;25.582;2024-01-16T07:55:53;94230.96;;;-0.37;62.80
84026;BME280;74110;45.660;25.582;2024-01-16T07:58:29;94232.44;;;-0.35;63.08
84026;BME280;74110;45.660;25.582;2024-01-16T08:01:05;94230.86;;;-0.35;62.88
84026;BME280;74110;45.660;25.582;2024-01-16T08:03:37;94236.82;;;-0.35;62.66
84026;BME280;74110;45.660;25.582;2024-01-16T08:06:21;94236.23;;;-0.27;62.96
84026;BME280;74110;45.660;25.582;2024-01-16T08:09:23;94250.86;;;-0.25;62.31
84026;BME280;74110;45.660;25.582;2024-01-16T08:11:55;94257.11;;;-0.19;62.08
84026;BME280;74110;45.660;25.582;2024-01-16T08:14:25;94263.25;;;-0.13;62.35
84026;BME280;74110;45.660;25.582;2024-01-16T08:16:56;94266.85;;;-0.15;62.21
84026;BME280;74110;45.660;25.582;2024-01-16T08:19:26;94274.27;;;-0.05;61.70
84026;BME280;74110;45.660;25.582;2024-01-16T08:22:02;94280.67;;;-0.10;62.07
84026;BME280;74110;45.660;25.582;2024-01-16T08:24:48;94287.61;;;-0.02;62.30
84026;BME280;74110;45.660;25.582;2024-01-16T08:27:34;94290.30;;;-0.07;61.28
84026;BME280;74110;45.660;25.582;2024-01-16T08:30:13;94309.60;;;-0.04;61.95
84026;BME280;74110;45.660;25.582;2024-01-16T08:33:09;94313.08;;;-0.15;61.00
84026;BME280;74110;45.660;25.582;2024-01-16T08:35:42;94315.89;;;-0.18;61.40
84026;BME280;74110;45.660;25.582;2024-01-16T08:38:18;94320.88;;;-0.29;61.20
84026;BME280;74110;45.660;25.582;2024-01-16T08:40:52;94325.65;;;-0.26;61.26
84026;BME280;74110;45.660;25.582;2024-01-16T08:43:28;94330.27;;;-0.21;61.43
84026;BME280;74110;45.660;25.582;2024-01-16T08:46:22;94323.16;;;-0.16;61.25
84026;BME280;74110;45.660;25.582;2024-01-16T08:49:11;94336.30;;;-0.10;61.45
84026;BME280;74110;45.660;25.582;2024-01-16T08:52:23;94338.60;;;-0.11;61.41
84026;BME280;74110;45.660;25.582;2024-01-16T08:58:51;94341.35;;;0.14;60.30
84026;BME280;74110;45.660;25.582;2024-01-16T09:02:23;94338.70;;;0.14;59.94
84026;BME280;74110;45.660;25.582;2024-01-16T09:05:28;94338.95;;;0.10;59.64
84026;BME280;74110;45.660;25.582;2024-01-16T09:08:15;94337.23;;;0.14;59.77
84026;BME280;74110;45.660;25.582;2024-01-16T09:10:50;94337.77;;;0.08;59.54
84026;BME280;74110;45.660;25.582;2024-01-16T09:13:40;94345.23;;;0.25;59.39
84026;BME280;74110;45.660;25.582;2024-01-16T09:16:17;94352.27;;;0.30;59.31
84026;BME280;74110;45.660;25.582;2024-01-16T09:18:49;94361.11;;;0.55;59.65
84026;BME280;74110;45.660;25.582;2024-01-16T09:21:28;94358.07;;;0.54;58.56
84026;BME280;74110;45.660;25.582;2024-01-16T09:24:10;94360.74;;;0.30;58.97
84026;BME280;74110;45.660;25.582;2024-01-16T09:26:47;94358.27;;;0.36;58.06
84026;BME280;74110;45.660;25.582;2024-01-16T09:29:47;94365.45;;;0.32;58.59
84026;BME280;74110;45.660;25.582;2024-01-16T09:32:31;94367.10;;;0.28;58.68
84026;BME280;74110;45.660;25.582;2024-01-16T09:35:33;94378.58;;;0.22;59.33
84026;BME280;74110;45.660;25.582;2024-01-16T09:38:14;94380.29;;;0.22;59.69
84026;BME280;74110;45.660;25.582;2024-01-16T09:40:48;94387.74;;;0.18;59.88
84026;BME280;74110;45.660;25.582;2024-01-16T09:43:22;94386.65;;;0.11;59.71
84026;BME280;74110;45.660;25.582;2024-01-16T09:46:00;94387.41;;;0.13;59.86
84026;BME280;74110;45.660;25.582;2024-01-16T09:48:52;94388.55;;;0.15;59.98
84026;BME280;74110;45.660;25.582;2024-01-16T09:51:24;94391.20;;;0.18;60.42
84026;BME280;74110;45.660;25.582;2024-01-16T09:54:11;94394.84;;;0.09;59.45
84026;BME280;74110;45.660;25.582;2024-01-16T09:56:51;94398.19;;;0.09;60.22
84026;BME280;74110;45.660;25.582;2024-01-16T09:59:24;94403.67;;;0.16;60.23
84026;BME280;74110;45.660;25.582;2024-01-16T10:01:56;94403.58;;;0.10;60.44
84026;BME280;74110;45.660;25.582;2024-01-16T10:04:29;94405.41;;;0.19;60.10
84026;BME280;74110;45.660;25.582;2024-01-16T10:07:06;94404.90;;;0.13;59.64
84026;BME280;74110;45.660;25.582;2024-01-16T10:09:43;94407.29;;;0.10;57.94
84026;BME280;74110;45.660;25.582;2024-01-16T10:12:19;94412.11;;;0.11;58.41
84026;BME280;74110;45.660;25.582;2024-01-16T10:14:55;94410.99;;;0.10;58.44
84026;BME280;74110;45.660;25.582;2024-01-16T10:17:40;94405.64;;;0.05;57.52
84026;BME280;74110;45.660;25.582;2024-01-16T10:20:13;94412.34;;;0.15;57.30
84026;BME280;74110;45.660;25.582;2024-01-16T10:22:53;94413.60;;;0.14;58.06
84026;BME280;74110;45.660;25.582;2024-01-16T10:25:27;94416.34;;;0.12;58.04
84026;BME280;74110;45.660;25.582;2024-01-16T10:28:05;94415.58;;;0.01;58.18
84026;BME280;74110;45.660;25.582;2024-01-16T10:30:38;94414.33;;;0.06;57.47
84026;BME280;74110;45.660;25.582;2024-01-16T10:33:15;94419.48;;;0.03;57.22
84026;BME280;74110;45.660;25.582;2024-01-16T10:35:46;94419.39;;;0.05;57.93
84026;BME280;74110;45.660;25.582;2024-01-16T10:38:22;94425.96;;;-0.01;57.81
84026;BME280;74110;45.660;25.582;2024-01-16T10:41:23;94430.10;;;0.08;57.97
84026;BME280;74110;45.660;25.582;2024-01-16T10:44:15;94439.84;;;0.08;57.98
84026;BME280;74110;45.660;25.582;2024-01-16T10:46:47;94433.23;;;0.12;57.55
84026;BME280;74110;45.660;25.582;2024-01-16T10:49:18;94439.06;;;0.18;57.66
84026;BME280;74110;45.660;25.582;2024-01-16T10:51:50;94442.19;;;0.17;57.81
84026;BME280;74110;45.660;25.582;2024-01-16T10:54:27;94450.08;;;0.08;56.96
84026;BME280;74110;45.660;25.582;2024-01-16T10:57:08;94447.07;;;0.12;57.69
84026;BME280;74110;45.660;25.582;2024-01-16T11:00:04;94446.81;;;0.26;57.87
84026;BME280;74110;45.660;25.582;2024-01-16T11:02:51;94445.19;;;0.34;56.84
84026;BME280;74110;45.660;25.582;2024-01-16T11:05:26;94450.17;;;0.45;56.29
84026;BME280;74110;45.660;25.582;2024-01-16T11:07:59;94447.36;;;0.40;56.18
84026;BME280;74110;45.660;25.582;2024-01-16T11:10:32;94446.77;;;0.38;57.02
84026;BME280;74110;45.660;25.582;2024-01-16T11:13:12;94449.44;;;0.29;54.84
84026;BME280;74110;45.660;25.582;2024-01-16T11:15:50;94452.04;;;0.35;54.60
84026;BME280;74110;45.660;25.582;2024-01-16T11:18:24;94454.93;;;0.38;54.93
84026;BME280;74110;45.660;25.582;2024-01-16T11:20:56;94460.95;;;0.38;54.87
84026;BME280;74110;45.660;25.582;2024-01-16T11:23:40;94462.66;;;0.37;53.95
84026;BME280;74110;45.660;25.582;2024-01-16T11:26:27;94466.19;;;0.39;54.85
84026;BME280;74110;45.660;25.582;2024-01-16T11:32:09;94473.59;;;0.51;55.21
84026;BME280;74110;45.660;25.582;2024-01-16T11:35:04;94482.86;;;0.55;53.80
84026;BME280;74110;45.660;25.582;2024-01-16T11:37:35;94482.36;;;0.60;53.22
84026;BME280;74110;45.660;25.582;2024-01-16T11:40:23;94480.14;;;0.63;53.44
84026;BME280;74110;45.660;25.582;2024-01-16T11:43:52;94485.00;;;0.55;54.42
84026;BME280;74110;45.660;25.582;2024-01-16T11:46:16;94493.73;;;0.63;54.17
84026;BME280;74110;45.660;25.582;2024-01-16T11:49:01;94488.30;;;0.63;53.70
84026;BME280;74110;45.660;25.582;2024-01-16T11:51:32;94490.39;;;0.61;53.13
84026;BME280;74110;45.660;25.582;2024-01-16T11:54:01;94489.18;;;0.78;52.63
84026;BME280;74110;45.660;25.582;2024-01-16T11:57:06;94496.56;;;0.81;51.71
84026;BME280;74110;45.660;25.582;2024-01-16T12:00:08;94499.45;;;1.12;50.63
84026;BME280;74110;45.660;25.582;2024-01-16T12:02:56;94494.65;;;1.28;50.06
84026;BME280;74110;45.660;25.582;2024-01-16T12:05:26;94511.23;;;1.78;49.28
84026;BME280;74110;45.660;25.582;2024-01-16T12:07:55;94517.80;;;2.28;48.52
84026;BME280;74110;45.660;25.582;2024-01-16T12:10:30;94525.31;;;1.88;48.16
84026;BME280;74110;45.660;25.582;2024-01-16T12:13:12;94524.64;;;1.52;48.58
84026;BME280;74110;45.660;25.582;2024-01-16T12:15:43;94527.81;;;1.44;48.94
84026;BME280;74110;45.660;25.582;2024-01-16T12:18:20;94530.77;;;1.49;49.77
84026;BME280;74110;45.660;25.582;2024-01-16T12:21:10;94530.61;;;1.66;48.95
84026;BME280;74110;45.660;25.582;2024-01-16T12:23:41;94542.66;;;1.56;47.97
84026;BME280;74110;45.660;25.582;2024-01-16T12:26:24;94541.21;;;1.92;46.71
84026;BME280;74110;45.660;25.582;2024-01-16T12:28:58;94547.73;;;1.84;46.52
84026;BME280;74110;45.660;25.582;2024-01-16T12:31:31;94553.44;;;1.82;47.81
84026;BME280;74110;45.660;25.582;2024-01-16T12:34:08;94557.73;;;2.32;46.97
84026;BME280;74110;45.660;25.582;2024-01-16T12:36:39;94552.84;;;2.17;45.98
84026;BME280;74110;45.660;25.582;2024-01-16T12:39:34;94557.83;;;1.96;47.01
84026;BME280;74110;45.660;25.582;2024-01-16T12:42:06;94557.09;;;2.31;45.84
84026;BME280;74110;45.660;25.582;2024-01-16T12:44:38;94560.09;;;2.42;44.93
84026;BME280;74110;45.660;25.582;2024-01-16T12:47:08;94562.25;;;2.48;45.34
84026;BME280;74110;45.660;25.582;2024-01-16T12:49:41;94565.65;;;2.36;45.16
84026;BME280;74110;45.660;25.582;2024-01-16T12:52:21;94568.12;;;2.03;45.73
84026;BME280;74110;45.660;25.582;2024-01-16T12:55:00;94571.02;;;2.48;44.84
84026;BME280;74110;45.660;25.582;2024-01-16T12:57:32;94573.73;;;2.32;44.50
84026;BME280;74110;45.660;25.582;2024-01-16T13:00:21;94577.05;;;2.10;45.81
84026;BME280;74110;45.660;25.582;2024-01-16T13:02:52;94579.52;;;1.95;45.90
84026;BME280;74110;45.660;25.582;2024-01-16T13:05:22;94582.78;;;1.78;46.92
84026;BME280;74110;45.660;25.582;2024-01-16T13:08:04;94583.58;;;1.84;46.99
84026;BME280;74110;45.660;25.582;2024-01-16T13:10:35;94587.63;;;2.05;46.09
84026;BME280;74110;45.660;25.582;2024-01-16T13:13:18;94589.39;;;1.98;46.73
84026;BME280;74110;45.660;25.582;2024-01-16T13:15:47;94591.31;;;1.76;46.19
84026;BME280;74110;45.660;25.582;2024-01-16T13:18:31;94595.96;;;1.48;47.18
84026;BME280;74110;45.660;25.582;2024-01-16T13:21:01;94603.43;;;1.45;47.90
84026;BME280;74110;45.660;25.582;2024-01-16T13:23:31;94607.67;;;1.35;48.18
84026;BME280;74110;45.660;25.582;2024-01-16T13:26:00;94604.14;;;1.21;48.39
84026;BME280;74110;45.660;25.582;2024-01-16T13:28:36;94607.45;;;1.06;49.49
84026;BME280;74110;45.660;25.582;2024-01-16T13:31:07;94605.27;;;1.25;49.11
84026;BME280;74110;45.660;25.582;2024-01-16T13:33:37;94612.35;;;1.04;48.62
84026;BME280;74110;45.660;25.582;2024-01-16T13:36:08;94618.31;;;1.18;49.03
84026;BME280;74110;45.660;25.582;2024-01-16T13:38:38;94621.33;;;1.24;48.93
84026;BME280;74110;45.660;25.582;2024-01-16T13:41:08;94627.51;;;1.22;49.72
84026;BME280;74110;45.660;25.582;2024-01-16T13:43:37;94634.71;;;1.19;49.50
84026;BME280;74110;45.660;25.582;2024-01-16T13:46:09;94634.64;;;1.25;49.19
84026;BME280;74110;45.660;25.582;2024-01-16T13:48:39;94639.63;;;1.33;49.60